Time;durP1;ratioP1;P1;durP2;ratioP2;P2;SDS_P1;SDS_P2;PMS_P1;PMS_P2;Temp;Humidity;BMP_temperature;BMP_pressure;BME280_temperature;BME280_humidity;BME280_pressure;Samples;Min_cycle;Max_cycle;Signal;HPM_P1;HPM_P2
2024/02/24 00:01:53;;;;;;;10.13;9.43;;;4.60;99.90;;;;;;12494967;28;20045;-36
2024/02/24 00:07:55;;;;;;;9.20;8.60;;;4.50;99.90;;;;;;12503928;28;20478;-36
2024/02/24 00:13:57;;;;;;;8.50;8.00;;;4.50;99.90;;;;;;12521277;28;20079;-35
2024/02/24 00:19:59;;;;;;;9.35;8.75;;;4.40;99.90;;;;;;12512603;28;20086;-36
2024/02/24 00:26:01;;;;;;;8.70;8.00;;;4.40;99.90;;;;;;12471568;28;20486;-36
2024/02/24 00:32:03;;;;;;;8.50;7.68;;;4.40;99.90;;;;;;12497392;28;20048;-36
2024/02/24 00:38:05;;;;;;;8.82;7.90;;;4.30;99.90;;;;;;12499490;28;20057;-36
2024/02/24 00:44:09;;;;;;;8.10;7.15;;;4.30;99.90;;;;;;12523436;28;20580;-36
2024/02/24 00:50:11;;;;;;;7.70;7.03;;;4.40;99.90;;;;;;12502049;28;20053;-36
2024/02/24 00:56:13;;;;;;;8.10;7.40;;;4.70;99.90;;;;;;12486891;28;20061;-36
2024/02/24 01:02:15;;;;;;;8.98;8.07;;;4.80;99.90;;;;;;12511166;28;20141;-35
2024/02/24 01:08:17;;;;;;;8.93;8.43;;;4.90;99.90;;;;;;12488394;28;20049;-36
2024/02/24 01:14:19;;;;;;;10.13;9.02;;;4.80;99.90;;;;;;12490685;28;20048;-36
2024/02/24 01:20:23;;;;;;;9.93;9.15;;;4.70;99.90;;;;;;12497208;28;20049;-36
2024/02/24 01:26:25;;;;;;;8.98;8.38;;;4.60;99.90;;;;;;12519699;28;20099;-36
2024/02/24 01:32:26;;;;;;;8.25;7.18;;;4.50;99.90;;;;;;12499584;28;20253;-36
2024/02/24 01:38:28;;;;;;;8.65;7.80;;;4.50;99.90;;;;;;12502359;28;20052;-36
2024/02/24 01:44:30;;;;;;;9.40;8.70;;;4.60;99.90;;;;;;12522987;28;20061;-36
2024/02/24 01:50:32;;;;;;;8.70;7.90;;;4.50;99.90;;;;;;12505633;28;20048;-36
2024/02/24 01:56:37;;;;;;;9.52;7.90;;;4.60;99.90;;;;;;12488772;28;20090;-36
2024/02/24 02:02:40;;;;;;;9.73;9.02;;;4.60;99.90;;;;;;12499624;28;20045;-36
2024/02/24 02:08:42;;;;;;;9.13;8.32;;;4.70;99.90;;;;;;12513801;28;20413;-36
2024/02/24 02:14:44;;;;;;;8.73;8.13;;;4.60;99.90;;;;;;12505133;28;20383;-36
2024/02/24 02:20:49;;;;;;;8.45;7.95;;;4.60;99.90;;;;;;12496563;28;21279;-36
2024/02/24 02:26:51;;;;;;;9.25;8.52;;;4.60;99.90;;;;;;12485658;28;20045;-36
2024/02/24 02:32:53;;;;;;;8.80;8.20;;;4.60;99.90;;;;;;12473629;28;20076;-35
2024/02/24 02:38:55;;;;;;;9.65;8.85;;;4.60;99.90;;;;;;12486323;28;20045;-36
2024/02/24 02:44:57;;;;;;;9.15;8.55;;;4.60;99.90;;;;;;12477879;28;20084;-36
2024/02/24 02:50:59;;;;;;;10.60;9.70;;;4.60;99.90;;;;;;12496386;28;20132;-36
2024/02/24 02:57:00;;;;;;;10.43;9.73;;;4.60;99.90;;;;;;12487703;28;20258;-36
2024/02/24 03:03:03;;;;;;;9.65;8.85;;;4.50;99.90;;;;;;12481949;28;20488;-35
2024/02/24 03:09:05;;;;;;;10.38;9.55;;;4.40;99.90;;;;;;12482493;28;20486;-35
2024/02/24 03:15:08;;;;;;;10.32;9.32;;;4.30;99.90;;;;;;12499048;28;20095;-35
2024/02/24 03:21:09;;;;;;;10.18;9.18;;;4.40;99.90;;;;;;12508911;28;20068;-36
2024/02/24 03:27:11;;;;;;;8.65;7.95;;;4.40;99.90;;;;;;12487629;28;20057;-36
2024/02/24 03:33:13;;;;;;;8.93;8.13;;;4.40;99.90;;;;;;12514324;28;20092;-36
2024/02/24 03:39:18;;;;;;;9.65;8.88;;;4.40;99.90;;;;;;12507257;28;20118;-35
2024/02/24 03:45:20;;;;;;;9.43;8.70;;;4.40;99.90;;;;;;12528754;28;20065;-36
2024/02/24 03:51:22;;;;;;;10.15;9.52;;;4.30;99.90;;;;;;12515808;28;20053;-35
2024/02/24 03:57:23;;;;;;;10.35;9.52;;;4.30;99.90;;;;;;12511885;28;20067;-36
2024/02/24 04:03:25;;;;;;;9.77;9.18;;;4.20;99.90;;;;;;12513824;28;20513;-36
2024/02/24 04:09:27;;;;;;;9.18;8.40;;;4.10;99.90;;;;;;12517741;28;20053;-36
2024/02/24 04:15:29;;;;;;;9.65;8.90;;;4.10;99.90;;;;;;12516982;28;20037;-35
2024/02/24 04:21:31;;;;;;;9.68;8.98;;;4.10;99.90;;;;;;12498884;28;20049;-36
2024/02/24 04:27:32;;;;;;;11.20;10.10;;;4.10;99.90;;;;;;12497074;28;20045;-36
2024/02/24 04:33:34;;;;;;;10.98;10.18;;;4.10;99.90;;;;;;12514586;28;20068;-36
2024/02/24 04:39:36;;;;;;;11.73;10.68;;;4.10;99.90;;;;;;12520467;28;20267;-36
2024/02/24 04:45:38;;;;;;;11.82;11.05;;;4.10;99.90;;;;;;12496107;28;20497;-36
2024/02/24 04:51:40;;;;;;;12.02;11.23;;;4.20;99.90;;;;;;12492243;28;20107;-35
2024/02/24 04:57:42;;;;;;;12.45;11.32;;;4.20;99.90;;;;;;12494865;28;20137;-36
2024/02/24 05:03:43;;;;;;;12.35;11.25;;;4.10;99.90;;;;;;12487604;28;20045;-36
2024/02/24 05:09:45;;;;;;;12.38;11.27;;;4.00;99.90;;;;;;12496739;28;20057;-36
2024/02/24 05:15:47;;;;;;;12.85;11.48;;;4.00;99.90;;;;;;12518151;28;20136;-36
2024/02/24 05:21:49;;;;;;;10.80;10.07;;;4.10;99.90;;;;;;12491556;28;20080;-36
2024/02/24 05:27:51;;;;;;;12.38;11.60;;;4.10;99.90;;;;;;12502736;28;20605;-36
2024/02/24 05:33:54;;;;;;;13.02;11.95;;;4.20;99.90;;;;;;12519281;28;20059;-36
2024/02/24 05:39:58;;;;;;;13.85;12.43;;;4.30;99.90;;;;;;12502787;28;20049;-36
2024/02/24 05:46:03;;;;;;;13.95;13.05;;;4.30;99.90;;;;;;12514932;28;20056;-36
2024/02/24 05:52:05;;;;;;;15.13;13.65;;;4.40;99.90;;;;;;12516850;28;20049;-36
2024/02/24 05:58:08;;;;;;;14.57;13.60;;;4.40;99.90;;;;;;12506757;28;20350;-36
2024/02/24 06:04:10;;;;;;;16.20;15.00;;;4.40;99.90;;;;;;12518983;28;20057;-36
2024/02/24 06:10:12;;;;;;;14.98;14.00;;;4.40;99.90;;;;;;12509578;28;20098;-36
2024/02/24 06:16:14;;;;;;;15.45;14.43;;;4.40;99.90;;;;;;12499241;28;20050;-35
2024/02/24 06:22:16;;;;;;;16.00;15.05;;;4.40;99.90;;;;;;12487359;28;20080;-36
2024/02/24 06:28:18;;;;;;;16.30;15.40;;;4.40;99.90;;;;;;12476110;28;20532;-36
2024/02/24 06:34:20;;;;;;;17.50;16.20;;;4.50;99.90;;;;;;12494335;28;20517;-36
2024/02/24 06:40:22;;;;;;;16.90;15.80;;;4.50;99.90;;;;;;12506409;28;20056;-35
2024/02/24 06:46:38;;;;;;;17.17;15.93;;;4.40;99.90;;;;;;12510018;28;20053;-36
2024/02/24 06:52:40;;;;;;;15.93;14.98;;;4.50;99.90;;;;;;12490810;28;20174;-36
2024/02/24 06:58:42;;;;;;;16.10;15.10;;;4.50;99.90;;;;;;12491683;28;20079;-37
2024/02/24 07:04:44;;;;;;;17.38;16.33;;;4.60;99.90;;;;;;12505511;28;20046;-36
2024/02/24 07:10:46;;;;;;;15.85;14.95;;;4.60;99.90;;;;;;12498745;28;20091;-35
2024/02/24 07:16:47;;;;;;;18.05;16.88;;;4.60;99.90;;;;;;12507680;28;20064;-36
2024/02/24 07:22:49;;;;;;;18.08;16.92;;;4.60;99.90;;;;;;12507126;28;20059;-36
2024/02/24 07:28:51;;;;;;;18.80;17.50;;;4.70;99.90;;;;;;12508094;28;20053;-37
2024/02/24 07:34:53;;;;;;;18.20;17.02;;;4.70;99.90;;;;;;12517540;28;20046;-36
2024/02/24 07:40:55;;;;;;;17.73;16.73;;;4.70;99.90;;;;;;12507614;28;20539;-36
2024/02/24 07:46:57;;;;;;;19.48;18.38;;;4.80;99.90;;;;;;12500660;28;20149;-36
2024/02/24 07:52:59;;;;;;;19.48;18.38;;;4.90;99.90;;;;;;12524884;28;20145;-36
2024/02/24 07:59:01;;;;;;;20.55;19.40;;;5.00;99.90;;;;;;12507483;28;20102;-36
2024/02/24 08:05:04;;;;;;;20.45;19.20;;;5.10;99.90;;;;;;12505625;28;20056;-36
2024/02/24 08:11:06;;;;;;;21.98;20.55;;;5.20;99.90;;;;;;12520875;28;20049;-37
2024/02/24 08:17:10;;;;;;;22.17;20.77;;;5.30;99.90;;;;;;12485838;28;20576;-36
2024/02/24 08:23:12;;;;;;;21.77;20.58;;;5.30;99.90;;;;;;12496709;28;20063;-35
2024/02/24 08:29:14;;;;;;;20.15;18.98;;;5.30;99.90;;;;;;12490848;28;20128;-36
2024/02/24 08:35:17;;;;;;;19.33;18.23;;;5.40;99.90;;;;;;12497727;28;20488;-36
2024/02/24 08:41:19;;;;;;;21.70;20.50;;;5.50;99.90;;;;;;12507391;28;20560;-36
2024/02/24 08:47:21;;;;;;;21.13;19.92;;;5.60;99.90;;;;;;12510199;28;20080;-36
2024/02/24 08:53:23;;;;;;;20.13;18.73;;;5.60;99.90;;;;;;12488808;28;20045;-37
2024/02/24 08:59:25;;;;;;;22.23;20.92;;;5.70;99.90;;;;;;12499854;28;20052;-36
2024/02/24 09:05:27;;;;;;;22.20;20.98;;;5.80;99.90;;;;;;12508884;28;20096;-36
2024/02/24 09:11:30;;;;;;;22.77;21.42;;;5.90;99.90;;;;;;12498665;28;20136;-36
2024/02/24 09:17:32;;;;;;;23.75;22.42;;;5.90;99.90;;;;;;12501564;28;20082;-36
2024/02/24 09:23:34;;;;;;;26.02;24.42;;;6.00;99.90;;;;;;12497580;28;20136;-36
2024/02/24 09:29:36;;;;;;;26.58;25.08;;;6.20;99.90;;;;;;12514105;28;20091;-36
2024/02/24 09:35:37;;;;;;;24.83;23.25;;;6.40;99.90;;;;;;12510427;28;20038;-37
2024/02/24 09:41:40;;;;;;;22.13;20.52;;;6.70;99.90;;;;;;12509331;28;20060;-36
2024/02/24 09:47:43;;;;;;;25.80;24.40;;;7.20;99.90;;;;;;12525836;28;20132;-37
2024/02/24 09:53:45;;;;;;;26.02;24.55;;;7.10;99.90;;;;;;12498622;28;20041;-36
2024/02/24 09:59:48;;;;;;;25.63;24.15;;;7.20;99.90;;;;;;12502109;28;20071;-37
2024/02/24 10:05:50;;;;;;;23.77;22.45;;;7.60;99.90;;;;;;12505627;28;20077;-36
2024/02/24 10:11:52;;;;;;;26.00;24.50;;;7.70;99.90;;;;;;12518097;28;20060;-36
2024/02/24 10:17:56;;;;;;;24.80;23.50;;;7.80;99.90;;;;;;12512163;28;20087;-37
2024/02/24 10:23:59;;;;;;;23.38;22.10;;;8.00;99.90;;;;;;12480902;28;20083;-36
2024/02/24 10:30:04;;;;;;;21.67;20.55;;;8.20;99.90;;;;;;12497851;28;20106;-37
2024/02/24 10:36:08;;;;;;;26.00;24.60;;;8.50;99.90;;;;;;12520945;28;20560;-37
2024/02/24 10:42:11;;;;;;;24.57;23.27;;;8.80;99.90;;;;;;12487200;28;20045;-37
2024/02/24 10:48:13;;;;;;;20.52;19.42;;;8.70;99.90;;;;;;12483780;28;20052;-35
2024/02/24 10:54:20;;;;;;;23.15;21.95;;;8.50;99.90;;;;;;12508653;28;20092;-37
2024/02/24 11:00:36;;;;;;;23.90;22.70;;;8.50;99.90;;;;;;12495895;28;21665;-36
2024/02/24 11:06:47;;;;;;;22.70;21.42;;;8.20;99.90;;;;;;12487335;28;20049;-37
2024/02/24 11:12:50;;;;;;;23.77;22.58;;;8.20;99.90;;;;;;12494070;28;20053;-36
2024/02/24 11:18:53;;;;;;;25.30;24.00;;;7.90;99.90;;;;;;12488506;28;20046;-37
2024/02/24 11:25:05;;;;;;;29.00;27.50;;;7.70;99.90;;;;;;12496286;28;20064;-37
2024/02/24 11:31:07;;;;;;;20.40;19.40;;;7.50;99.90;;;;;;12501408;28;20045;-36
2024/02/24 11:37:10;;;;;;;17.52;16.63;;;7.10;99.90;;;;;;12501725;28;20493;-36
2024/02/24 11:43:16;;;;;;;15.43;14.63;;;6.90;99.90;;;;;;12499206;28;20049;-37
2024/02/24 11:49:18;;;;;;;14.50;13.70;;;6.60;99.90;;;;;;12502516;28;20140;-35
2024/02/24 11:55:20;;;;;;;12.23;11.52;;;6.30;99.90;;;;;;12514124;28;20052;-37
2024/02/24 12:01:23;;;;;;;12.05;11.25;;;6.10;99.90;;;;;;12505032;28;20109;-36
2024/02/24 12:07:26;;;;;;;12.13;11.52;;;6.30;99.90;;;;;;12503242;28;20068;-36
2024/02/24 12:13:28;;;;;;;12.33;11.73;;;6.70;99.90;;;;;;12517795;28;20390;-36
2024/02/24 12:19:35;;;;;;;14.65;13.82;;;6.80;99.90;;;;;;12478908;28;20123;-36
2024/02/24 12:25:37;;;;;;;16.30;15.40;;;6.60;99.90;;;;;;12505663;28;20187;-37
2024/02/24 12:31:40;;;;;;;13.07;12.38;;;6.20;99.90;;;;;;12509091;28;20106;-36
2024/02/24 12:37:44;;;;;;;9.95;9.45;;;5.50;99.90;;;;;;12503372;28;20076;-37
2024/02/24 12:43:45;;;;;;;8.70;8.20;;;5.20;99.90;;;;;;12482698;28;20076;-37
2024/02/24 12:49:48;;;;;;;8.50;7.93;;;5.10;99.90;;;;;;12509838;28;20422;-35
2024/02/24 12:55:50;;;;;;;12.18;11.48;;;5.50;99.90;;;;;;12507817;28;20044;-36
2024/02/24 13:01:51;;;;;;;13.27;12.57;;;5.90;99.90;;;;;;12502563;28;20148;-36
2024/02/24 13:07:53;;;;;;;15.38;14.57;;;5.80;99.90;;;;;;12473083;28;20049;-36
2024/02/24 13:13:55;;;;;;;16.70;15.57;;;5.70;99.90;;;;;;12512128;28;20508;-36
2024/02/24 13:19:57;;;;;;;19.30;18.30;;;5.70;99.90;;;;;;12496534;28;20052;-36
2024/02/24 13:25:59;;;;;;;23.05;21.88;;;5.80;99.90;;;;;;12514145;28;20085;-37
2024/02/24 13:32:01;;;;;;;19.08;18.08;;;5.90;99.90;;;;;;12513580;28;20060;-36
2024/02/24 13:38:03;;;;;;;14.48;13.57;;;6.00;99.90;;;;;;12502942;28;20045;-36
2024/02/24 13:44:07;;;;;;;16.30;15.40;;;6.10;99.90;;;;;;12519759;28;20048;-36
2024/02/24 13:50:09;;;;;;;18.98;17.75;;;6.20;99.90;;;;;;12515296;28;20073;-35
2024/02/24 13:56:12;;;;;;;31.40;29.80;;;6.40;99.90;;;;;;12487319;28;20060;-36
2024/02/24 14:02:14;;;;;;;22.17;20.98;;;6.60;99.90;;;;;;12509262;28;20045;-37
2024/02/24 14:08:16;;;;;;;37.00;35.10;;;6.70;99.90;;;;;;12518242;28;20049;-37
2024/02/24 14:14:18;;;;;;;34.78;32.97;;;6.50;99.90;;;;;;12510813;28;20426;-36
2024/02/24 14:20:20;;;;;;;33.13;31.50;;;6.50;99.90;;;;;;12520206;28;20049;-36
2024/02/24 14:26:29;;;;;;;32.35;30.58;;;6.30;99.90;;;;;;12515078;28;20069;-36
2024/02/24 14:32:31;;;;;;;30.65;29.05;;;6.40;99.90;;;;;;12498016;28;20049;-36
2024/02/24 14:38:33;;;;;;;28.88;27.35;;;6.60;99.90;;;;;;12498894;28;20044;-36
2024/02/24 14:44:35;;;;;;;22.75;21.65;;;6.80;99.90;;;;;;12494030;28;20053;-36
2024/02/24 14:50:37;;;;;;;26.92;25.58;;;7.00;99.90;;;;;;12481942;28;20046;-36
2024/02/24 14:56:39;;;;;;;33.58;31.88;;;7.10;99.90;;;;;;12490420;28;20418;-35
2024/02/24 15:02:42;;;;;;;34.35;32.65;;;6.90;99.90;;;;;;12471524;28;20048;-36
2024/02/24 15:09:04;;;;;;;32.25;30.58;;;6.90;99.90;;;;;;12486500;28;20053;-36
2024/02/24 15:15:07;;;;;;;29.48;27.98;;;6.90;99.90;;;;;;12487176;28;20079;-36
2024/02/24 15:21:11;;;;;;;27.13;25.73;;;6.80;99.90;;;;;;12487063;28;20083;-37
2024/02/24 15:27:13;;;;;;;28.00;26.60;;;6.50;99.90;;;;;;12488733;28;20370;-35
2024/02/24 15:33:15;;;;;;;24.95;23.63;;;6.30;99.90;;;;;;12492745;28;20081;-36
2024/02/24 15:39:17;;;;;;;24.92;23.63;;;6.20;99.90;;;;;;12505194;28;20136;-36
2024/02/24 15:45:20;;;;;;;24.17;22.98;;;6.30;99.90;;;;;;12483450;28;20057;-37
2024/02/24 15:51:22;;;;;;;24.80;23.30;;;6.20;99.90;;;;;;12506816;28;20606;-36
2024/02/24 15:57:24;;;;;;;23.83;22.63;;;6.10;99.90;;;;;;12514864;28;20532;-36
2024/02/24 16:03:26;;;;;;;22.13;21.00;;;6.10;99.90;;;;;;12510322;28;20053;-36
2024/02/24 16:09:29;;;;;;;25.52;24.13;;;6.10;99.90;;;;;;12497145;28;20049;-36
2024/02/24 16:15:32;;;;;;;24.75;23.45;;;6.00;99.90;;;;;;12509189;28;20098;-35
2024/02/24 16:21:39;;;;;;;24.00;22.73;;;5.90;99.90;;;;;;12520489;28;20040;-36
2024/02/24 16:27:42;;;;;;;23.45;22.17;;;5.80;99.90;;;;;;12513644;28;20045;-36
2024/02/24 16:33:44;;;;;;;21.77;20.60;;;5.80;99.90;;;;;;12503611;28;20037;-37
2024/02/24 16:39:46;;;;;;;21.40;20.30;;;5.70;99.90;;;;;;12493139;28;20096;-37
2024/02/24 16:45:47;;;;;;;17.40;16.33;;;5.70;99.90;;;;;;12520940;28;20156;-36
2024/02/24 16:51:52;;;;;;;20.33;19.25;;;5.70;99.90;;;;;;12504508;28;20049;-36
2024/02/24 16:57:54;;;;;;;19.30;18.30;;;5.60;99.90;;;;;;12510086;28;20112;-35
2024/02/24 17:03:57;;;;;;;17.95;17.05;;;5.40;99.90;;;;;;12530360;28;20136;-37
2024/02/24 17:09:59;;;;;;;19.77;18.77;;;5.30;99.90;;;;;;12488436;28;20596;-36
2024/02/24 17:16:01;;;;;;;18.75;17.67;;;5.30;99.90;;;;;;12483116;28;20490;-36
2024/02/24 17:22:03;;;;;;;17.65;16.75;;;5.10;99.90;;;;;;12504422;28;20080;-37
2024/02/24 17:28:06;;;;;;;17.95;16.85;;;5.00;99.90;;;;;;12499712;28;20090;-36
2024/02/24 17:34:10;;;;;;;17.15;16.15;;;5.00;99.90;;;;;;12504980;28;20408;-35
2024/02/24 17:40:12;;;;;;;16.07;15.27;;;4.90;99.90;;;;;;12477512;28;20410;-36
2024/02/24 17:46:16;;;;;;;16.42;15.55;;;5.00;99.90;;;;;;12500754;28;20135;-36
2024/02/24 17:52:18;;;;;;;16.55;15.65;;;5.20;99.90;;;;;;12520048;28;20049;-36
2024/02/24 17:58:19;;;;;;;17.50;16.40;;;5.30;99.90;;;;;;12516153;28;20170;-36
2024/02/24 18:04:40;;;;;;;17.42;16.42;;;5.30;99.90;;;;;;12520043;28;20108;-36
2024/02/24 18:10:42;;;;;;;18.77;17.77;;;5.30;99.90;;;;;;12507735;28;20046;-36
2024/02/24 18:16:44;;;;;;;19.15;18.15;;;5.40;99.90;;;;;;12497729;28;20510;-36
2024/02/24 18:22:46;;;;;;;12.90;12.20;;;5.40;99.90;;;;;;12496580;28;20053;-36
2024/02/24 18:28:48;;;;;;;12.15;11.50;;;5.20;99.90;;;;;;12513121;28;20099;-36
2024/02/24 18:34:50;;;;;;;10.65;9.40;;;4.50;99.90;;;;;;12505153;28;20133;-36
2024/02/24 18:40:52;;;;;;;7.10;6.60;;;4.00;99.90;;;;;;12503459;28;20474;-35
2024/02/24 18:46:54;;;;;;;7.20;6.53;;;3.80;99.90;;;;;;12506739;28;20084;-36
2024/02/24 18:52:56;;;;;;;7.50;7.03;;;3.80;99.90;;;;;;12476405;28;20516;-36
2024/02/24 18:58:58;;;;;;;8.20;7.70;;;3.80;99.90;;;;;;12493724;28;20203;-36
2024/02/24 19:05:00;;;;;;;8.95;8.43;;;3.80;99.90;;;;;;12467768;28;20136;-36
2024/02/24 19:11:02;;;;;;;11.35;10.75;;;3.70;99.90;;;;;;12503384;28;20502;-36
2024/02/24 19:17:05;;;;;;;14.30;13.50;;;3.70;99.90;;;;;;12471621;28;20042;-36
2024/02/24 19:23:06;;;;;;;14.90;14.02;;;3.70;99.90;;;;;;12498787;28;20186;-36
2024/02/24 19:29:13;;;;;;;14.48;13.68;;;3.70;99.90;;;;;;12479876;28;20077;-36
2024/02/24 19:35:15;;;;;;;16.25;15.23;;;3.70;99.90;;;;;;12482277;28;20139;-36
2024/02/24 19:41:17;;;;;;;17.50;16.55;;;3.60;99.90;;;;;;12482633;28;20417;-36
2024/02/24 19:47:20;;;;;;;17.25;16.33;;;3.60;99.90;;;;;;12498829;28;20050;-36
2024/02/24 19:53:23;;;;;;;17.35;16.40;;;3.60;99.90;;;;;;12502270;28;20370;-36
2024/02/24 19:59:25;;;;;;;17.63;16.58;;;3.60;99.90;;;;;;12502629;28;20046;-36
2024/02/24 20:05:26;;;;;;;17.58;16.48;;;3.70;99.90;;;;;;12524543;28;20485;-36
2024/02/24 20:11:29;;;;;;;16.77;15.88;;;3.70;99.90;;;;;;12503791;28;20853;-36
2024/02/24 20:17:31;;;;;;;17.02;16.02;;;3.80;99.90;;;;;;12505946;28;20052;-36
2024/02/24 20:23:33;;;;;;;16.33;15.32;;;3.90;99.90;;;;;;12500458;28;20418;-36
2024/02/24 20:29:35;;;;;;;18.02;16.92;;;4.00;99.90;;;;;;12514120;28;20065;-36
2024/02/24 20:35:37;;;;;;;19.88;18.77;;;4.10;99.90;;;;;;12521286;28;20114;-36
2024/02/24 20:41:42;;;;;;;21.48;20.17;;;4.20;99.90;;;;;;12535238;28;20073;-36
2024/02/24 20:47:44;;;;;;;20.92;19.63;;;4.30;99.90;;;;;;12498613;28;20077;-36
2024/02/24 20:53:45;;;;;;;22.95;21.67;;;4.30;99.90;;;;;;12508658;28;20195;-35
2024/02/24 20:59:48;;;;;;;25.35;23.98;;;4.30;99.90;;;;;;12475324;28;20045;-36
2024/02/24 21:05:49;;;;;;;25.92;24.63;;;4.40;99.90;;;;;;12510605;28;20060;-36
2024/02/24 21:11:52;;;;;;;28.13;26.63;;;4.40;99.90;;;;;;12511243;28;20056;-36
2024/02/24 21:17:54;;;;;;;28.83;27.33;;;4.40;99.90;;;;;;12478715;28;20064;-36
2024/02/24 21:23:57;;;;;;;28.63;27.13;;;4.30;99.90;;;;;;12504660;28;20049;-35
2024/02/24 21:29:59;;;;;;;26.88;25.27;;;4.20;99.90;;;;;;12486157;28;20076;-36
2024/02/24 21:36:01;;;;;;;27.58;26.10;;;4.20;99.90;;;;;;12483616;28;20046;-36
2024/02/24 21:42:07;;;;;;;28.10;26.58;;;4.10;99.90;;;;;;12471148;28;20794;-36
2024/02/24 21:48:09;;;;;;;28.95;27.25;;;4.20;99.90;;;;;;12496201;28;20045;-35
2024/02/24 21:54:14;;;;;;;26.98;25.58;;;4.10;99.90;;;;;;12525623;28;20135;-36
2024/02/24 22:00:18;;;;;;;25.95;24.38;;;4.00;99.90;;;;;;12519850;28;20052;-36
2024/02/24 22:06:20;;;;;;;;;;;4.00;99.90;;;;;;12510813;28;20057;-36
2024/02/24 22:12:22;;;;;;;25.65;24.35;;;4.00;99.90;;;;;;12512367;28;20428;-36
2024/02/24 22:18:24;;;;;;;26.77;25.48;;;4.00;99.90;;;;;;12535984;28;20045;-36
2024/02/24 22:24:26;;;;;;;29.88;28.42;;;4.00;99.90;;;;;;12529567;28;20041;-36
2024/02/24 22:30:28;;;;;;;28.02;26.50;;;3.90;99.90;;;;;;12518078;28;20077;-35
2024/02/24 22:36:30;;;;;;;29.50;28.00;;;3.90;99.90;;;;;;12530282;28;20052;-36
2024/02/24 22:42:33;;;;;;;27.15;25.85;;;3.80;99.90;;;;;;12491496;28;20135;-36
2024/02/24 22:48:35;;;;;;;27.73;26.27;;;3.80;99.90;;;;;;12491363;28;20060;-36
2024/02/24 22:54:37;;;;;;;28.00;26.60;;;3.80;99.90;;;;;;12484098;28;20553;-36
2024/02/24 23:00:39;;;;;;;28.80;27.35;;;3.80;99.90;;;;;;12492673;28;20171;-36
2024/02/24 23:06:41;;;;;;;27.20;25.70;;;3.80;99.90;;;;;;12480097;28;20207;-36
2024/02/24 23:12:45;;;;;;;25.17;23.88;;;3.70;99.90;;;;;;12472929;28;20069;-36
2024/02/24 23:18:47;;;;;;;24.25;23.05;;;3.70;99.90;;;;;;12483143;28;20413;-35
2024/02/24 23:24:49;;;;;;;26.63;25.10;;;3.80;99.90;;;;;;12470776;28;20045;-35
2024/02/24 23:30:51;;;;;;;26.42;24.92;;;3.80;99.90;;;;;;12489253;28;20052;-36
2024/02/24 23:36:53;;;;;;;26.10;24.70;;;3.80;99.90;;;;;;12499867;28;20077;-36
2024/02/24 23:42:54;;;;;;;25.30;24.00;;;3.90;99.90;;;;;;12489913;28;20079;-36
2024/02/24 23:48:56;;;;;;;26.25;24.63;;;3.90;99.90;;;;;;12476711;28;20057;-36
2024/02/24 23:54:59;;;;;;;24.83;23.42;;;3.90;99.90;;;;;;12489184;28;20053;-36
